sensor_id;sensor_type;location;lat;lon;timestamp;temperature;humidity
9837;DHT22;4957;51.412;6.724;2022-07-10T00:01:26;19.60;48.50
9837;DHT22;4957;51.412;6.724;2022-07-10T00:03:52;19.60;48.50
9837;DHT22;4957;51.412;6.724;2022-07-10T00:06:19;19.50;48.60
9837;DHT22;4957;51.412;6.724;2022-07-10T00:08:45;19.50;48.90
9837;DHT22;4957;51.412;6.724;2022-07-10T00:11:11;19.50;49.10
9837;DHT22;4957;51.412;6.724;2022-07-10T00:13:37;19.40;49.00
9837;DHT22;4957;51.412;6.724;2022-07-10T00:16:03;19.40;49.20
9837;DHT22;4957;51.412;6.724;2022-07-10T00:18:29;19.40;49.20
9837;DHT22;4957;51.412;6.724;2022-07-10T00:20:55;19.40;49.50
9837;DHT22;4957;51.412;6.724;2022-07-10T00:23:21;19.40;49.70
9837;DHT22;4957;51.412;6.724;2022-07-10T00:25:46;19.40;49.60
9837;DHT22;4957;51.412;6.724;2022-07-10T00:28:12;19.40;49.60
9837;DHT22;4957;51.412;6.724;2022-07-10T00:30:38;19.40;49.90
9837;DHT22;4957;51.412;6.724;2022-07-10T00:33:04;19.30;49.60
9837;DHT22;4957;51.412;6.724;2022-07-10T00:35:30;19.30;49.90
9837;DHT22;4957;51.412;6.724;2022-07-10T00:37:56;19.30;49.90
9837;DHT22;4957;51.412;6.724;2022-07-10T00:40:22;19.30;50.00
9837;DHT22;4957;51.412;6.724;2022-07-10T00:42:47;19.30;50.00
9837;DHT22;4957;51.412;6.724;2022-07-10T00:45:13;19.30;50.20
9837;DHT22;4957;51.412;6.724;2022-07-10T00:47:39;19.30;50.20
9837;DHT22;4957;51.412;6.724;2022-07-10T00:50:05;19.30;50.20
9837;DHT22;4957;51.412;6.724;2022-07-10T00:52:33;19.30;50.30
9837;DHT22;4957;51.412;6.724;2022-07-10T00:55:05;19.20;50.40
9837;DHT22;4957;51.412;6.724;2022-07-10T00:57:31;19.20;50.20
9837;DHT22;4957;51.412;6.724;2022-07-10T00:59:58;19.20;50.50
9837;DHT22;4957;51.412;6.724;2022-07-10T01:02:24;19.20;50.40
9837;DHT22;4957;51.412;6.724;2022-07-10T01:04:49;19.20;50.60
9837;DHT22;4957;51.412;6.724;2022-07-10T01:07:15;19.20;50.60
9837;DHT22;4957;51.412;6.724;2022-07-10T01:09:41;19.20;50.70
9837;DHT22;4957;51.412;6.724;2022-07-10T01:12:08;19.20;50.60
9837;DHT22;4957;51.412;6.724;2022-07-10T01:14:37;19.20;51.00
9837;DHT22;4957;51.412;6.724;2022-07-10T01:17:06;19.20;50.60
9837;DHT22;4957;51.412;6.724;2022-07-10T01:19:32;19.20;50.70
9837;DHT22;4957;51.412;6.724;2022-07-10T01:21:57;19.20;50.80
9837;DHT22;4957;51.412;6.724;2022-07-10T01:24:23;19.20;50.60
9837;DHT22;4957;51.412;6.724;2022-07-10T01:26:49;19.10;51.00
9837;DHT22;4957;51.412;6.724;2022-07-10T01:29:15;19.10;50.90
9837;DHT22;4957;51.412;6.724;2022-07-10T01:31:41;19.10;51.10
9837;DHT22;4957;51.412;6.724;2022-07-10T01:34:08;19.10;51.20
9837;DHT22;4957;51.412;6.724;2022-07-10T01:36:35;19.10;50.90
9837;DHT22;4957;51.412;6.724;2022-07-10T01:39:00;19.10;51.20
9837;DHT22;4957;51.412;6.724;2022-07-10T01:41:26;19.10;51.10
9837;DHT22;4957;51.412;6.724;2022-07-10T01:43:53;19.00;50.80
9837;DHT22;4957;51.412;6.724;2022-07-10T01:46:19;19.00;51.00
9837;DHT22;4957;51.412;6.724;2022-07-10T01:48:45;19.00;51.30
9837;DHT22;4957;51.412;6.724;2022-07-10T01:51:11;19.00;51.30
9837;DHT22;4957;51.412;6.724;2022-07-10T01:53:38;18.90;51.20
9837;DHT22;4957;51.412;6.724;2022-07-10T01:56:06;19.00;51.30
9837;DHT22;4957;51.412;6.724;2022-07-10T01:58:32;18.90;51.20
9837;DHT22;4957;51.412;6.724;2022-07-10T02:00:58;18.90;51.50
9837;DHT22;4957;51.412;6.724;2022-07-10T02:03:23;18.80;51.30
9837;DHT22;4957;51.412;6.724;2022-07-10T02:06:07;18.80;51.20
9837;DHT22;4957;51.412;6.724;2022-07-10T02:08:33;18.80;51.10
9837;DHT22;4957;51.412;6.724;2022-07-10T02:10:59;18.70;51.30
9837;DHT22;4957;51.412;6.724;2022-07-10T02:13:25;18.70;51.50
9837;DHT22;4957;51.412;6.724;2022-07-10T02:15:54;18.70;51.40
9837;DHT22;4957;51.412;6.724;2022-07-10T02:18:20;18.70;51.70
9837;DHT22;4957;51.412;6.724;2022-07-10T02:20:46;18.70;51.40
9837;DHT22;4957;51.412;6.724;2022-07-10T02:23:12;18.60;51.40
9837;DHT22;4957;51.412;6.724;2022-07-10T02:25:38;18.60;51.60
9837;DHT22;4957;51.412;6.724;2022-07-10T02:28:04;18.60;51.50
9837;DHT22;4957;51.412;6.724;2022-07-10T02:30:30;18.60;51.60
9837;DHT22;4957;51.412;6.724;2022-07-10T02:32:56;18.50;51.80
9837;DHT22;4957;51.412;6.724;2022-07-10T02:35:22;18.50;51.80
9837;DHT22;4957;51.412;6.724;2022-07-10T02:37:47;18.50;52.00
9837;DHT22;4957;51.412;6.724;2022-07-10T02:40:13;18.50;52.30
9837;DHT22;4957;51.412;6.724;2022-07-10T02:42:39;18.40;52.10
9837;DHT22;4957;51.412;6.724;2022-07-10T02:45:05;18.40;52.10
9837;DHT22;4957;51.412;6.724;2022-07-10T02:47:30;18.40;51.90
9837;DHT22;4957;51.412;6.724;2022-07-10T02:49:56;18.40;52.10
9837;DHT22;4957;51.412;6.724;2022-07-10T02:52:22;18.30;52.30
9837;DHT22;4957;51.412;6.724;2022-07-10T02:54:47;18.30;52.30
9837;DHT22;4957;51.412;6.724;2022-07-10T02:57:13;18.30;52.40
9837;DHT22;4957;51.412;6.724;2022-07-10T02:59:39;18.20;52.30
9837;DHT22;4957;51.412;6.724;2022-07-10T03:02:05;18.20;52.40
9837;DHT22;4957;51.412;6.724;2022-07-10T03:04:31;18.10;52.30
9837;DHT22;4957;51.412;6.724;2022-07-10T03:06:56;18.10;52.30
9837;DHT22;4957;51.412;6.724;2022-07-10T03:09:22;18.10;52.60
9837;DHT22;4957;51.412;6.724;2022-07-10T03:11:48;18.10;52.80
9837;DHT22;4957;51.412;6.724;2022-07-10T03:14:13;18.00;52.60
9837;DHT22;4957;51.412;6.724;2022-07-10T03:16:39;18.00;52.70
9837;DHT22;4957;51.412;6.724;2022-07-10T03:19:05;18.00;52.80
9837;DHT22;4957;51.412;6.724;2022-07-10T03:21:30;17.90;53.20
9837;DHT22;4957;51.412;6.724;2022-07-10T03:23:56;17.90;52.20
9837;DHT22;4957;51.412;6.724;2022-07-10T03:26:22;17.80;52.60
9837;DHT22;4957;51.412;6.724;2022-07-10T03:28:48;17.80;53.00
9837;DHT22;4957;51.412;6.724;2022-07-10T03:31:13;17.70;52.40
9837;DHT22;4957;51.412;6.724;2022-07-10T03:33:39;17.70;53.00
9837;DHT22;4957;51.412;6.724;2022-07-10T03:36:05;17.60;52.80
9837;DHT22;4957;51.412;6.724;2022-07-10T03:38:31;17.60;53.00
9837;DHT22;4957;51.412;6.724;2022-07-10T03:40:57;17.60;53.10
9837;DHT22;4957;51.412;6.724;2022-07-10T03:43:23;17.50;53.00
9837;DHT22;4957;51.412;6.724;2022-07-10T03:45:50;17.50;53.30
9837;DHT22;4957;51.412;6.724;2022-07-10T03:48:16;17.40;53.20
9837;DHT22;4957;51.412;6.724;2022-07-10T03:50:42;17.40;53.40
9837;DHT22;4957;51.412;6.724;2022-07-10T03:53:07;17.30;53.30
9837;DHT22;4957;51.412;6.724;2022-07-10T03:55:33;17.30;53.70
9837;DHT22;4957;51.412;6.724;2022-07-10T03:57:59;17.30;53.20
9837;DHT22;4957;51.412;6.724;2022-07-10T04:00:29;17.30;53.50
9837;DHT22;4957;51.412;6.724;2022-07-10T04:03:07;17.20;54.30
9837;DHT22;4957;51.412;6.724;2022-07-10T04:05:33;17.20;54.30
9837;DHT22;4957;51.412;6.724;2022-07-10T04:07:59;17.20;53.90
9837;DHT22;4957;51.412;6.724;2022-07-10T04:10:26;17.10;54.10
9837;DHT22;4957;51.412;6.724;2022-07-10T04:12:53;17.10;54.00
9837;DHT22;4957;51.412;6.724;2022-07-10T04:15:19;17.10;54.40
9837;DHT22;4957;51.412;6.724;2022-07-10T04:17:46;17.10;54.30
9837;DHT22;4957;51.412;6.724;2022-07-10T04:20:12;17.10;54.90
9837;DHT22;4957;51.412;6.724;2022-07-10T04:22:38;17.00;54.70
9837;DHT22;4957;51.412;6.724;2022-07-10T04:25:04;17.00;54.80
9837;DHT22;4957;51.412;6.724;2022-07-10T04:27:31;17.00;55.00
9837;DHT22;4957;51.412;6.724;2022-07-10T04:29:56;17.00;54.80
9837;DHT22;4957;51.412;6.724;2022-07-10T04:32:22;17.00;55.10
9837;DHT22;4957;51.412;6.724;2022-07-10T04:34:48;17.00;55.40
9837;DHT22;4957;51.412;6.724;2022-07-10T04:37:14;17.00;55.80
9837;DHT22;4957;51.412;6.724;2022-07-10T04:39:40;16.90;55.20
9837;DHT22;4957;51.412;6.724;2022-07-10T04:42:07;16.90;55.60
9837;DHT22;4957;51.412;6.724;2022-07-10T04:44:33;16.90;55.80
9837;DHT22;4957;51.412;6.724;2022-07-10T04:46:59;16.90;55.50
9837;DHT22;4957;51.412;6.724;2022-07-10T04:49:25;16.90;55.90
9837;DHT22;4957;51.412;6.724;2022-07-10T04:51:51;16.90;56.00
9837;DHT22;4957;51.412;6.724;2022-07-10T04:54:17;16.90;55.70
9837;DHT22;4957;51.412;6.724;2022-07-10T04:56:43;16.90;56.00
9837;DHT22;4957;51.412;6.724;2022-07-10T04:59:09;16.90;56.50
9837;DHT22;4957;51.412;6.724;2022-07-10T05:01:35;16.90;57.00
9837;DHT22;4957;51.412;6.724;2022-07-10T05:04:02;16.90;56.90
9837;DHT22;4957;51.412;6.724;2022-07-10T05:06:28;16.90;56.50
9837;DHT22;4957;51.412;6.724;2022-07-10T05:08:54;17.00;57.20
9837;DHT22;4957;51.412;6.724;2022-07-10T05:11:20;17.00;56.60
9837;DHT22;4957;51.412;6.724;2022-07-10T05:13:46;17.00;55.70
9837;DHT22;4957;51.412;6.724;2022-07-10T05:16:17;17.10;57.10
9837;DHT22;4957;51.412;6.724;2022-07-10T05:18:43;17.10;57.50
9837;DHT22;4957;51.412;6.724;2022-07-10T05:21:09;17.20;57.70
9837;DHT22;4957;51.412;6.724;2022-07-10T05:23:36;17.20;56.30
9837;DHT22;4957;51.412;6.724;2022-07-10T05:26:02;17.30;57.20
9837;DHT22;4957;51.412;6.724;2022-07-10T05:28:28;17.40;56.80
9837;DHT22;4957;51.412;6.724;2022-07-10T05:30:54;17.40;56.50
9837;DHT22;4957;51.412;6.724;2022-07-10T05:33:19;17.50;56.90
9837;DHT22;4957;51.412;6.724;2022-07-10T05:35:45;17.60;55.60
9837;DHT22;4957;51.412;6.724;2022-07-10T05:38:11;17.60;57.20
9837;DHT22;4957;51.412;6.724;2022-07-10T05:40:37;17.70;57.70
9837;DHT22;4957;51.412;6.724;2022-07-10T05:43:02;17.80;57.50
9837;DHT22;4957;51.412;6.724;2022-07-10T05:45:29;17.90;57.20
9837;DHT22;4957;51.412;6.724;2022-07-10T05:47:55;18.00;56.90
9837;DHT22;4957;51.412;6.724;2022-07-10T05:50:20;18.00;57.20
9837;DHT22;4957;51.412;6.724;2022-07-10T05:52:46;18.10;57.80
9837;DHT22;4957;51.412;6.724;2022-07-10T05:55:12;18.20;57.00
9837;DHT22;4957;51.412;6.724;2022-07-10T05:57:38;18.20;57.10
9837;DHT22;4957;51.412;6.724;2022-07-10T06:00:04;18.20;57.00
9837;DHT22;4957;51.412;6.724;2022-07-10T06:02:31;18.30;56.70
9837;DHT22;4957;51.412;6.724;2022-07-10T06:04:56;18.30;56.30
9837;DHT22;4957;51.412;6.724;2022-07-10T06:07:22;18.30;56.60
9837;DHT22;4957;51.412;6.724;2022-07-10T06:09:48;18.40;56.30
9837;DHT22;4957;51.412;6.724;2022-07-10T06:12:14;18.40;56.60
9837;DHT22;4957;51.412;6.724;2022-07-10T06:14:41;18.40;56.50
9837;DHT22;4957;51.412;6.724;2022-07-10T06:17:07;18.40;56.80
9837;DHT22;4957;51.412;6.724;2022-07-10T06:19:33;18.50;56.70
9837;DHT22;4957;51.412;6.724;2022-07-10T06:21:59;18.50;56.60
9837;DHT22;4957;51.412;6.724;2022-07-10T06:24:43;18.50;56.70
9837;DHT22;4957;51.412;6.724;2022-07-10T06:27:09;18.50;56.60
9837;DHT22;4957;51.412;6.724;2022-07-10T06:29:35;18.50;56.60
9837;DHT22;4957;51.412;6.724;2022-07-10T06:32:01;18.50;56.40
9837;DHT22;4957;51.412;6.724;2022-07-10T06:34:26;18.50;56.50
9837;DHT22;4957;51.412;6.724;2022-07-10T06:36:52;18.50;56.30
9837;DHT22;4957;51.412;6.724;2022-07-10T06:39:18;18.60;56.60
9837;DHT22;4957;51.412;6.724;2022-07-10T06:41:44;18.60;56.70
9837;DHT22;4957;51.412;6.724;2022-07-10T06:44:09;18.60;56.60
9837;DHT22;4957;51.412;6.724;2022-07-10T06:46:35;18.70;57.10
9837;DHT22;4957;51.412;6.724;2022-07-10T06:49:01;18.70;56.60
9837;DHT22;4957;51.412;6.724;2022-07-10T06:51:26;18.70;56.60
9837;DHT22;4957;51.412;6.724;2022-07-10T06:53:52;18.70;56.50
9837;DHT22;4957;51.412;6.724;2022-07-10T06:56:18;18.70;56.60
9837;DHT22;4957;51.412;6.724;2022-07-10T06:58:44;18.70;56.70
9837;DHT22;4957;51.412;6.724;2022-07-10T07:01:10;18.80;56.60
9837;DHT22;4957;51.412;6.724;2022-07-10T07:03:36;18.80;56.00
9837;DHT22;4957;51.412;6.724;2022-07-10T07:06:01;18.80;56.20
9837;DHT22;4957;51.412;6.724;2022-07-10T07:08:30;18.80;56.00
9837;DHT22;4957;51.412;6.724;2022-07-10T07:10:56;18.90;56.20
9837;DHT22;4957;51.412;6.724;2022-07-10T07:13:22;18.90;56.00
9837;DHT22;4957;51.412;6.724;2022-07-10T07:15:48;18.90;55.60
9837;DHT22;4957;51.412;6.724;2022-07-10T07:18:23;18.90;55.60
9837;DHT22;4957;51.412;6.724;2022-07-10T07:21:00;19.00;55.40
9837;DHT22;4957;51.412;6.724;2022-07-10T07:23:44;18.90;55.30
9837;DHT22;4957;51.412;6.724;2022-07-10T07:26:09;19.00;55.30
9837;DHT22;4957;51.412;6.724;2022-07-10T07:28:35;19.00;55.30
9837;DHT22;4957;51.412;6.724;2022-07-10T07:31:01;19.00;55.90
9837;DHT22;4957;51.412;6.724;2022-07-10T07:33:27;19.00;55.00
9837;DHT22;4957;51.412;6.724;2022-07-10T07:35:52;19.10;55.40
9837;DHT22;4957;51.412;6.724;2022-07-10T07:38:18;19.10;55.40
9837;DHT22;4957;51.412;6.724;2022-07-10T07:40:44;19.00;55.10
9837;DHT22;4957;51.412;6.724;2022-07-10T07:43:10;19.10;55.10
9837;DHT22;4957;51.412;6.724;2022-07-10T07:45:35;19.10;55.30
9837;DHT22;4957;51.412;6.724;2022-07-10T07:48:01;19.10;55.60
9837;DHT22;4957;51.412;6.724;2022-07-10T07:50:29;19.20;56.00
9837;DHT22;4957;51.412;6.724;2022-07-10T07:52:57;19.20;56.10
9837;DHT22;4957;51.412;6.724;2022-07-10T07:55:23;19.20;55.90
9837;DHT22;4957;51.412;6.724;2022-07-10T07:57:52;19.30;55.80
9837;DHT22;4957;51.412;6.724;2022-07-10T08:00:19;19.30;56.00
9837;DHT22;4957;51.412;6.724;2022-07-10T08:02:45;19.30;56.00
9837;DHT22;4957;51.412;6.724;2022-07-10T08:05:11;19.40;56.10
9837;DHT22;4957;51.412;6.724;2022-07-10T08:10:05;19.40;56.10
9837;DHT22;4957;51.412;6.724;2022-07-10T08:12:31;19.50;56.30
9837;DHT22;4957;51.412;6.724;2022-07-10T08:14:57;19.50;56.30
9837;DHT22;4957;51.412;6.724;2022-07-10T08:17:24;19.50;56.20
9837;DHT22;4957;51.412;6.724;2022-07-10T08:19:50;19.50;56.20
9837;DHT22;4957;51.412;6.724;2022-07-10T08:22:15;19.60;56.50
9837;DHT22;4957;51.412;6.724;2022-07-10T08:24:41;19.50;57.10
9837;DHT22;4957;51.412;6.724;2022-07-10T08:27:08;19.60;57.50
9837;DHT22;4957;51.412;6.724;2022-07-10T08:29:34;19.60;57.80
9837;DHT22;4957;51.412;6.724;2022-07-10T08:32:00;19.60;58.20
9837;DHT22;4957;51.412;6.724;2022-07-10T08:34:26;19.60;58.80
9837;DHT22;4957;51.412;6.724;2022-07-10T08:36:53;19.60;59.40
9837;DHT22;4957;51.412;6.724;2022-07-10T08:39:19;19.60;59.90
9837;DHT22;4957;51.412;6.724;2022-07-10T08:41:47;19.70;60.20
9837;DHT22;4957;51.412;6.724;2022-07-10T08:44:16;19.70;60.90
9837;DHT22;4957;51.412;6.724;2022-07-10T08:46:43;19.70;61.50
9837;DHT22;4957;51.412;6.724;2022-07-10T08:49:10;19.70;61.80
9837;DHT22;4957;51.412;6.724;2022-07-10T08:51:41;19.70;62.00
9837;DHT22;4957;51.412;6.724;2022-07-10T08:54:07;19.80;62.70
9837;DHT22;4957;51.412;6.724;2022-07-10T08:56:34;19.80;63.00
9837;DHT22;4957;51.412;6.724;2022-07-10T08:59:02;19.80;62.90
9837;DHT22;4957;51.412;6.724;2022-07-10T09:01:29;19.90;63.60
9837;DHT22;4957;51.412;6.724;2022-07-10T09:03:55;19.90;63.60
9837;DHT22;4957;51.412;6.724;2022-07-10T09:06:21;20.00;63.30
9837;DHT22;4957;51.412;6.724;2022-07-10T09:09:07;20.00;63.20
9837;DHT22;4957;51.412;6.724;2022-07-10T09:11:33;20.00;63.70
9837;DHT22;4957;51.412;6.724;2022-07-10T09:14:06;20.10;62.20
9837;DHT22;4957;51.412;6.724;2022-07-10T09:16:38;20.10;62.60
9837;DHT22;4957;51.412;6.724;2022-07-10T09:19:25;20.10;61.70
9837;DHT22;4957;51.412;6.724;2022-07-10T09:22:10;20.10;61.40
9837;DHT22;4957;51.412;6.724;2022-07-10T09:24:42;20.10;62.10
9837;DHT22;4957;51.412;6.724;2022-07-10T09:27:09;20.10;61.40
9837;DHT22;4957;51.412;6.724;2022-07-10T09:29:50;20.10;61.30
9837;DHT22;4957;51.412;6.724;2022-07-10T09:32:21;20.10;62.50
9837;DHT22;4957;51.412;6.724;2022-07-10T09:34:50;20.10;61.60
9837;DHT22;4957;51.412;6.724;2022-07-10T09:37:39;20.10;62.10
9837;DHT22;4957;51.412;6.724;2022-07-10T09:40:06;20.10;62.20
9837;DHT22;4957;51.412;6.724;2022-07-10T09:42:43;20.10;62.70
9837;DHT22;4957;51.412;6.724;2022-07-10T09:52:53;20.30;62.80
9837;DHT22;4957;51.412;6.724;2022-07-10T09:55:21;20.30;62.50
9837;DHT22;4957;51.412;6.724;2022-07-10T09:57:55;20.40;63.10
9837;DHT22;4957;51.412;6.724;2022-07-10T10:00:23;20.30;64.00
9837;DHT22;4957;51.412;6.724;2022-07-10T10:02:57;20.40;64.70
9837;DHT22;4957;51.412;6.724;2022-07-10T10:05:37;20.50;63.10
9837;DHT22;4957;51.412;6.724;2022-07-10T10:08:25;20.50;64.20
9837;DHT22;4957;51.412;6.724;2022-07-10T10:10:53;20.50;64.40
9837;DHT22;4957;51.412;6.724;2022-07-10T10:13:23;20.50;62.90
9837;DHT22;4957;51.412;6.724;2022-07-10T10:15:52;20.50;62.80
9837;DHT22;4957;51.412;6.724;2022-07-10T10:18:19;20.60;62.10
9837;DHT22;4957;51.412;6.724;2022-07-10T10:20:46;20.60;63.00
9837;DHT22;4957;51.412;6.724;2022-07-10T10:23:15;20.60;62.90
9837;DHT22;4957;51.412;6.724;2022-07-10T10:25:55;20.60;63.40
9837;DHT22;4957;51.412;6.724;2022-07-10T10:28:23;20.60;64.10
9837;DHT22;4957;51.412;6.724;2022-07-10T10:30:54;20.60;63.80
9837;DHT22;4957;51.412;6.724;2022-07-10T10:35:58;20.70;65.60
9837;DHT22;4957;51.412;6.724;2022-07-10T10:38:24;20.70;65.00
9837;DHT22;4957;51.412;6.724;2022-07-10T10:40:50;20.70;65.10
9837;DHT22;4957;51.412;6.724;2022-07-10T10:43:20;20.80;64.10
9837;DHT22;4957;51.412;6.724;2022-07-10T10:45:47;20.80;64.40
9837;DHT22;4957;51.412;6.724;2022-07-10T10:48:15;20.90;63.90
9837;DHT22;4957;51.412;6.724;2022-07-10T10:50:48;21.00;64.10
9837;DHT22;4957;51.412;6.724;2022-07-10T10:53:23;21.10;63.80
9837;DHT22;4957;51.412;6.724;2022-07-10T10:58:43;21.30;63.00
9837;DHT22;4957;51.412;6.724;2022-07-10T11:04:14;21.30;63.00
9837;DHT22;4957;51.412;6.724;2022-07-10T11:06:47;21.40;63.80
9837;DHT22;4957;51.412;6.724;2022-07-10T11:12:07;21.30;63.70
9837;DHT22;4957;51.412;6.724;2022-07-10T11:14:38;21.30;64.30
9837;DHT22;4957;51.412;6.724;2022-07-10T11:17:06;21.30;64.80
9837;DHT22;4957;51.412;6.724;2022-07-10T11:19:33;21.20;64.30
9837;DHT22;4957;51.412;6.724;2022-07-10T11:30:01;21.30;66.60
9837;DHT22;4957;51.412;6.724;2022-07-10T11:32:28;21.40;67.60
9837;DHT22;4957;51.412;6.724;2022-07-10T11:34:55;21.40;68.00
9837;DHT22;4957;51.412;6.724;2022-07-10T11:37:21;21.50;67.70
9837;DHT22;4957;51.412;6.724;2022-07-10T11:39:48;21.70;68.70
9837;DHT22;4957;51.412;6.724;2022-07-10T11:42:14;21.70;69.30
9837;DHT22;4957;51.412;6.724;2022-07-10T11:44:40;21.80;69.80
9837;DHT22;4957;51.412;6.724;2022-07-10T11:47:06;21.90;67.90
9837;DHT22;4957;51.412;6.724;2022-07-10T11:49:33;22.00;68.70
9837;DHT22;4957;51.412;6.724;2022-07-10T11:52:03;22.00;66.50
9837;DHT22;4957;51.412;6.724;2022-07-10T11:54:29;22.00;65.40
9837;DHT22;4957;51.412;6.724;2022-07-10T11:56:55;22.00;64.60
9837;DHT22;4957;51.412;6.724;2022-07-10T11:59:26;21.90;64.80
9837;DHT22;4957;51.412;6.724;2022-07-10T12:01:53;21.90;64.00
9837;DHT22;4957;51.412;6.724;2022-07-10T12:04:20;21.80;64.30
9837;DHT22;4957;51.412;6.724;2022-07-10T12:06:53;21.80;64.70
9837;DHT22;4957;51.412;6.724;2022-07-10T12:09:20;21.70;64.20
9837;DHT22;4957;51.412;6.724;2022-07-10T12:12:05;21.60;63.20
9837;DHT22;4957;51.412;6.724;2022-07-10T12:14:32;21.50;63.90
9837;DHT22;4957;51.412;6.724;2022-07-10T12:16:58;21.40;63.00
9837;DHT22;4957;51.412;6.724;2022-07-10T12:21:51;21.30;62.70
9837;DHT22;4957;51.412;6.724;2022-07-10T12:24:18;21.20;63.00
9837;DHT22;4957;51.412;6.724;2022-07-10T12:26:50;21.20;63.60
9837;DHT22;4957;51.412;6.724;2022-07-10T12:29:20;21.10;63.30
9837;DHT22;4957;51.412;6.724;2022-07-10T12:31:48;21.10;64.40
9837;DHT22;4957;51.412;6.724;2022-07-10T12:34:15;21.10;65.40
9837;DHT22;4957;51.412;6.724;2022-07-10T12:36:49;21.10;66.20
9837;DHT22;4957;51.412;6.724;2022-07-10T12:39:17;21.10;67.60
9837;DHT22;4957;51.412;6.724;2022-07-10T12:42:00;21.20;67.50
9837;DHT22;4957;51.412;6.724;2022-07-10T12:44:39;21.30;69.00
9837;DHT22;4957;51.412;6.724;2022-07-10T12:47:22;21.40;68.70
9837;DHT22;4957;51.412;6.724;2022-07-10T12:50:08;21.60;69.00
9837;DHT22;4957;51.412;6.724;2022-07-10T12:52:36;21.70;68.30
9837;DHT22;4957;51.412;6.724;2022-07-10T12:57:33;21.80;67.80
9837;DHT22;4957;51.412;6.724;2022-07-10T13:00:05;21.90;66.60
9837;DHT22;4957;51.412;6.724;2022-07-10T13:02:31;21.90;66.50
9837;DHT22;4957;51.412;6.724;2022-07-10T13:04:58;21.90;66.20
9837;DHT22;4957;51.412;6.724;2022-07-10T13:09:58;21.90;65.00
9837;DHT22;4957;51.412;6.724;2022-07-10T13:12:24;22.00;65.80
9837;DHT22;4957;51.412;6.724;2022-07-10T13:14:50;22.10;65.80
9837;DHT22;4957;51.412;6.724;2022-07-10T13:17:16;22.20;65.30
9837;DHT22;4957;51.412;6.724;2022-07-10T13:19:42;22.30;65.20
9837;DHT22;4957;51.412;6.724;2022-07-10T13:22:07;22.40;64.80
9837;DHT22;4957;51.412;6.724;2022-07-10T13:24:33;22.50;63.90
9837;DHT22;4957;51.412;6.724;2022-07-10T13:26:59;22.70;63.50
9837;DHT22;4957;51.412;6.724;2022-07-10T13:29:24;22.80;63.10
9837;DHT22;4957;51.412;6.724;2022-07-10T13:31:50;22.90;62.50
9837;DHT22;4957;51.412;6.724;2022-07-10T13:34:17;23.10;61.80
9837;DHT22;4957;51.412;6.724;2022-07-10T13:36:42;23.20;61.20
9837;DHT22;4957;51.412;6.724;2022-07-10T13:39:08;23.20;60.30
9837;DHT22;4957;51.412;6.724;2022-07-10T13:41:34;23.30;60.10
9837;DHT22;4957;51.412;6.724;2022-07-10T13:44:00;23.50;59.60
9837;DHT22;4957;51.412;6.724;2022-07-10T13:46:27;23.60;59.50
9837;DHT22;4957;51.412;6.724;2022-07-10T13:48:53;23.70;59.30
9837;DHT22;4957;51.412;6.724;2022-07-10T13:51:18;23.80;59.20
9837;DHT22;4957;51.412;6.724;2022-07-10T13:53:44;23.90;58.60
9837;DHT22;4957;51.412;6.724;2022-07-10T13:56:10;23.90;58.30
9837;DHT22;4957;51.412;6.724;2022-07-10T13:58:36;24.00;58.10
9837;DHT22;4957;51.412;6.724;2022-07-10T14:01:03;24.00;57.50
9837;DHT22;4957;51.412;6.724;2022-07-10T14:03:30;24.10;57.40
9837;DHT22;4957;51.412;6.724;2022-07-10T14:05:56;24.20;57.10
9837;DHT22;4957;51.412;6.724;2022-07-10T14:08:22;24.20;56.70
9837;DHT22;4957;51.412;6.724;2022-07-10T14:10:48;24.20;56.50
9837;DHT22;4957;51.412;6.724;2022-07-10T14:13:14;24.20;56.10
9837;DHT22;4957;51.412;6.724;2022-07-10T14:15:39;24.20;55.90
9837;DHT22;4957;51.412;6.724;2022-07-10T14:18:06;24.20;55.80
9837;DHT22;4957;51.412;6.724;2022-07-10T14:20:32;24.20;55.70
9837;DHT22;4957;51.412;6.724;2022-07-10T14:23:18;24.20;55.50
9837;DHT22;4957;51.412;6.724;2022-07-10T14:25:44;24.20;55.50
9837;DHT22;4957;51.412;6.724;2022-07-10T14:28:09;24.20;55.50
9837;DHT22;4957;51.412;6.724;2022-07-10T14:30:41;24.20;55.40
9837;DHT22;4957;51.412;6.724;2022-07-10T14:33:07;24.20;55.30
9837;DHT22;4957;51.412;6.724;2022-07-10T14:35:33;24.20;55.10
9837;DHT22;4957;51.412;6.724;2022-07-10T14:37:59;24.20;55.00
9837;DHT22;4957;51.412;6.724;2022-07-10T14:40:24;24.20;55.00
9837;DHT22;4957;51.412;6.724;2022-07-10T14:42:50;24.30;54.70
9837;DHT22;4957;51.412;6.724;2022-07-10T14:45:16;24.30;54.70
9837;DHT22;4957;51.412;6.724;2022-07-10T14:47:41;24.30;54.70
9837;DHT22;4957;51.412;6.724;2022-07-10T14:50:07;24.40;54.60
9837;DHT22;4957;51.412;6.724;2022-07-10T14:52:34;24.40;54.40
9837;DHT22;4957;51.412;6.724;2022-07-10T14:55:02;24.40;54.30
9837;DHT22;4957;51.412;6.724;2022-07-10T14:57:28;24.40;54.40
9837;DHT22;4957;51.412;6.724;2022-07-10T14:59:54;24.50;55.00
9837;DHT22;4957;51.412;6.724;2022-07-10T15:02:19;24.50;54.40
9837;DHT22;4957;51.412;6.724;2022-07-10T15:04:45;24.60;54.10
9837;DHT22;4957;51.412;6.724;2022-07-10T15:07:11;24.60;53.80
9837;DHT22;4957;51.412;6.724;2022-07-10T15:09:36;24.70;53.70
9837;DHT22;4957;51.412;6.724;2022-07-10T15:12:02;24.80;53.40
9837;DHT22;4957;51.412;6.724;2022-07-10T15:14:28;24.80;53.40
9837;DHT22;4957;51.412;6.724;2022-07-10T15:16:54;24.80;53.20
9837;DHT22;4957;51.412;6.724;2022-07-10T15:19:20;25.00;53.40
9837;DHT22;4957;51.412;6.724;2022-07-10T15:21:46;25.00;53.40
9837;DHT22;4957;51.412;6.724;2022-07-10T15:24:12;25.00;52.90
9837;DHT22;4957;51.412;6.724;2022-07-10T15:26:37;25.00;52.80
9837;DHT22;4957;51.412;6.724;2022-07-10T15:29:03;25.00;52.80
9837;DHT22;4957;51.412;6.724;2022-07-10T15:31:29;25.10;52.90
9837;DHT22;4957;51.412;6.724;2022-07-10T15:33:55;25.10;52.90
9837;DHT22;4957;51.412;6.724;2022-07-10T15:36:20;25.10;52.70
9837;DHT22;4957;51.412;6.724;2022-07-10T15:38:47;25.20;52.50
9837;DHT22;4957;51.412;6.724;2022-07-10T15:41:12;25.20;52.60
9837;DHT22;4957;51.412;6.724;2022-07-10T15:43:38;25.20;52.40
9837;DHT22;4957;51.412;6.724;2022-07-10T15:46:04;25.20;52.30
9837;DHT22;4957;51.412;6.724;2022-07-10T15:48:32;25.30;52.10
9837;DHT22;4957;51.412;6.724;2022-07-10T15:50:58;25.30;52.20
9837;DHT22;4957;51.412;6.724;2022-07-10T15:53:23;25.30;52.10
9837;DHT22;4957;51.412;6.724;2022-07-10T15:55:49;25.40;51.70
9837;DHT22;4957;51.412;6.724;2022-07-10T15:58:15;25.40;51.70
9837;DHT22;4957;51.412;6.724;2022-07-10T16:00:42;25.50;51.40
9837;DHT22;4957;51.412;6.724;2022-07-10T16:03:07;25.50;51.20
9837;DHT22;4957;51.412;6.724;2022-07-10T16:05:33;25.50;51.20
9837;DHT22;4957;51.412;6.724;2022-07-10T16:07:59;25.50;51.10
9837;DHT22;4957;51.412;6.724;2022-07-10T16:10:24;25.50;51.10
9837;DHT22;4957;51.412;6.724;2022-07-10T16:12:50;25.50;51.00
9837;DHT22;4957;51.412;6.724;2022-07-10T16:15:16;25.50;50.90
9837;DHT22;4957;51.412;6.724;2022-07-10T16:17:41;25.40;50.80
9837;DHT22;4957;51.412;6.724;2022-07-10T16:20:08;25.40;50.70
9837;DHT22;4957;51.412;6.724;2022-07-10T16:22:34;25.40;50.70
9837;DHT22;4957;51.412;6.724;2022-07-10T16:25:01;25.40;50.80
9837;DHT22;4957;51.412;6.724;2022-07-10T16:27:45;25.30;50.70
9837;DHT22;4957;51.412;6.724;2022-07-10T16:30:11;25.30;50.70
9837;DHT22;4957;51.412;6.724;2022-07-10T16:32:36;25.20;50.80
9837;DHT22;4957;51.412;6.724;2022-07-10T16:35:02;25.20;50.60
9837;DHT22;4957;51.412;6.724;2022-07-10T16:37:28;25.20;50.60
9837;DHT22;4957;51.412;6.724;2022-07-10T16:39:54;25.20;50.60